Time;durP1;ratioP1;P1;durP2;ratioP2;P2;SDS_P1;SDS_P2;PMS_P1;PMS_P2;Temp;Humidity;BMP_temperature;BMP_pressure;BME280_temperature;BME280_humidity;BME280_pressure;Samples;Min_cycle;Max_cycle;Signal;HPM_P1;HPM_P2
2022/11/07 00:00:09;;;;;;;13.15;7.28;;;;;;;;;;4994043;28;20040;-67
2022/11/07 00:02:34;;;;;;;15.30;7.85;;;;;;;;;;4993828;28;20030;-67
2022/11/07 00:05:01;;;;;;;16.88;8.60;;;;;;;;;;4993903;28;20141;-66
2022/11/07 00:07:26;;;;;;;12.60;8.00;;;;;;;;;;4993782;28;20471;-67
2022/11/07 00:09:52;;;;;;;12.18;7.85;;;;;;;;;;4993858;28;20029;-67
2022/11/07 00:12:17;;;;;;;15.82;8.07;;;;;;;;;;4993866;28;20475;-67
2022/11/07 00:14:43;;;;;;;14.75;8.38;;;;;;;;;;4994051;28;20361;-67
2022/11/07 00:17:08;;;;;;;15.65;8.25;;;;;;;;;;4993605;28;20533;-68
2022/11/07 00:19:34;;;;;;;15.73;8.90;;;;;;;;;;4993800;28;20023;-67
2022/11/07 00:21:59;;;;;;;13.50;8.20;;;;;;;;;;4994332;28;20085;-66
2022/11/07 00:24:25;;;;;;;13.18;7.47;;;;;;;;;;4994329;28;20041;-67
2022/11/07 00:26:50;;;;;;;15.23;7.63;;;;;;;;;;4994135;28;20030;-68
2022/11/07 00:29:18;;;;;;;12.45;8.18;;;;;;;;;;4993033;28;20061;-67
2022/11/07 00:31:45;;;;;;;15.70;8.15;;;;;;;;;;4993103;28;20034;-67
2022/11/07 00:34:11;;;;;;;13.90;8.02;;;;;;;;;;4993342;28;20034;-67
2022/11/07 00:36:37;;;;;;;11.60;7.43;;;;;;;;;;4993428;28;20406;-67
2022/11/07 00:39:03;;;;;;;14.55;7.60;;;;;;;;;;4993785;28;20052;-67
2022/11/07 00:41:29;;;;;;;12.27;7.72;;;;;;;;;;4993967;28;20334;-67
2022/11/07 00:43:54;;;;;;;12.90;6.85;;;;;;;;;;4994057;28;20060;-66
2022/11/07 00:46:20;;;;;;;14.52;8.23;;;;;;;;;;4993802;28;20467;-67
2022/11/07 00:48:46;;;;;;;10.50;6.82;;;;;;;;;;4994174;28;20113;-67
2022/11/07 00:51:15;;;;;;;15.23;8.38;;;;;;;;;;4993918;28;20424;-67
2022/11/07 00:53:41;;;;;;;14.77;7.80;;;;;;;;;;4993208;28;20531;-66
2022/11/07 00:56:12;;;;;;;11.75;6.90;;;;;;;;;;4993272;28;20376;-66
2022/11/07 00:58:38;;;;;;;12.65;6.30;;;;;;;;;;4993182;28;20034;-66
2022/11/07 01:01:11;;;;;;;14.52;8.30;;;;;;;;;;4993000;28;20033;-67
2022/11/07 01:06:21;;;;;;;13.23;7.82;;;;;;;;;;4993643;28;20030;-66
2022/11/07 01:08:47;;;;;;;14.35;7.40;;;;;;;;;;4992518;28;20022;-67
2022/11/07 01:11:13;;;;;;;10.43;7.00;;;;;;;;;;4982319;28;20027;-67
2022/11/07 01:13:39;;;;;;;13.60;7.10;;;;;;;;;;4981598;28;20033;-66
2022/11/07 01:16:08;;;;;;;12.82;7.07;;;;;;;;;;4983827;28;20026;-68
2022/11/07 01:18:34;;;;;;;10.93;7.00;;;;;;;;;;4979187;28;20035;-67
2022/11/07 01:21:03;;;;;;;13.95;8.43;;;;;;;;;;4980681;28;20030;-67
2022/11/07 01:23:29;;;;;;;13.40;6.80;;;;;;;;;;4986377;28;20097;-67
2022/11/07 01:25:54;;;;;;;9.68;5.75;;;;;;;;;;4982103;28;20058;-68
2022/11/07 01:28:20;;;;;;;13.55;7.50;;;;;;;;;;4980135;28;20046;-67
2022/11/07 01:30:45;;;;;;;13.43;7.20;;;;;;;;;;4983202;28;20066;-67
2022/11/07 01:33:12;;;;;;;14.35;7.43;;;;;;;;;;4979938;28;20104;-67
2022/11/07 01:35:38;;;;;;;14.32;8.02;;;;;;;;;;4982855;28;20027;-67
2022/11/07 01:38:04;;;;;;;13.18;8.00;;;;;;;;;;4983311;28;20364;-67
2022/11/07 01:40:29;;;;;;;10.90;6.05;;;;;;;;;;4981519;28;20026;-68
2022/11/07 01:42:55;;;;;;;12.65;7.07;;;;;;;;;;4981979;28;20025;-67
2022/11/07 01:45:26;;;;;;;12.90;7.88;;;;;;;;;;4981619;28;20061;-67
2022/11/07 01:47:54;;;;;;;11.52;7.22;;;;;;;;;;4982582;28;20599;-68
2022/11/07 01:50:20;;;;;;;12.55;7.28;;;;;;;;;;4982870;28;20021;-67
2022/11/07 01:52:47;;;;;;;14.07;8.23;;;;;;;;;;4973975;28;20407;-67
2022/11/07 01:55:34;;;;;;;14.65;7.78;;;;;;;;;;4976349;28;20026;-68
2022/11/07 01:58:02;;;;;;;10.23;6.72;;;;;;;;;;4984316;28;20046;-67
2022/11/07 02:00:28;;;;;;;12.02;5.70;;;;;;;;;;4980680;28;20014;-67
2022/11/07 02:02:58;;;;;;;12.82;7.13;;;;;;;;;;4983566;28;20085;-67
2022/11/07 02:05:33;;;;;;;14.70;7.78;;;;;;;;;;4980736;28;20429;-66
2022/11/07 02:08:02;;;;;;;12.70;7.10;;;;;;;;;;4974977;28;20054;-65
2022/11/07 02:10:28;;;;;;;13.57;7.68;;;;;;;;;;4982450;28;20030;-67
2022/11/07 02:12:56;;;;;;;11.75;7.28;;;;;;;;;;4980908;28;20372;-67
2022/11/07 02:15:22;;;;;;;12.48;7.03;;;;;;;;;;4973701;28;20511;-67
2022/11/07 02:17:48;;;;;;;10.13;6.78;;;;;;;;;;4973765;28;20023;-67
2022/11/07 02:20:14;;;;;;;14.55;7.78;;;;;;;;;;4984755;28;20027;-67
2022/11/07 02:23:00;;;;;;;9.10;6.00;;;;;;;;;;4974548;28;20514;-67
2022/11/07 02:25:26;;;;;;;12.57;6.78;;;;;;;;;;4989394;28;20033;-67
2022/11/07 02:27:56;;;;;;;11.38;6.90;;;;;;;;;;4973318;28;20031;-68
2022/11/07 02:30:33;;;;;;;11.45;6.78;;;;;;;;;;4978389;28;20109;-67
2022/11/07 02:32:59;;;;;;;11.32;6.95;;;;;;;;;;4976879;28;20054;-66
2022/11/07 02:35:43;;;;;;;12.27;7.28;;;;;;;;;;4983749;28;20022;-67
2022/11/07 02:38:17;;;;;;;12.35;6.95;;;;;;;;;;4982361;28;20027;-67
2022/11/07 02:40:46;;;;;;;12.52;7.40;;;;;;;;;;4982635;28;20120;-67
2022/11/07 02:43:14;;;;;;;12.60;6.82;;;;;;;;;;4982461;28;20019;-68
2022/11/07 02:45:43;;;;;;;11.57;7.10;;;;;;;;;;4982025;28;20034;-66
2022/11/07 02:48:09;;;;;;;12.13;7.30;;;;;;;;;;4979755;28;20380;-67
2022/11/07 02:50:34;;;;;;;13.48;7.38;;;;;;;;;;4978076;28;20022;-67
2022/11/07 02:53:00;;;;;;;12.60;6.82;;;;;;;;;;4992700;28;20053;-67
2022/11/07 02:55:25;;;;;;;10.40;6.78;;;;;;;;;;4982151;28;20074;-68
2022/11/07 02:57:51;;;;;;;15.20;7.50;;;;;;;;;;4979534;28;20535;-68
2022/11/07 03:00:16;;;;;;;11.27;6.97;;;;;;;;;;4977010;28;20058;-67
2022/11/07 03:02:45;;;;;;;10.05;6.57;;;;;;;;;;4981600;28;20057;-67
2022/11/07 03:05:13;;;;;;;10.10;6.25;;;;;;;;;;4981001;28;20113;-66
2022/11/07 03:07:41;;;;;;;12.55;8.05;;;;;;;;;;4977219;28;20027;-67
2022/11/07 03:10:08;;;;;;;11.88;7.30;;;;;;;;;;4976801;28;20034;-66
2022/11/07 03:12:33;;;;;;;11.75;6.93;;;;;;;;;;4976997;28;20062;-67
2022/11/07 03:14:59;;;;;;;10.82;6.85;;;;;;;;;;4976923;28;20117;-68
2022/11/07 03:17:24;;;;;;;10.55;6.63;;;;;;;;;;4976919;28;20102;-67
2022/11/07 03:19:50;;;;;;;11.23;7.75;;;;;;;;;;4976791;28;20022;-67
2022/11/07 03:22:15;;;;;;;11.50;7.40;;;;;;;;;;4976825;28;20029;-66
2022/11/07 03:24:41;;;;;;;12.32;7.63;;;;;;;;;;4976566;28;20091;-67
2022/11/07 03:27:06;;;;;;;12.25;7.40;;;;;;;;;;4976687;28;20041;-67
2022/11/07 03:29:32;;;;;;;13.23;7.45;;;;;;;;;;4983035;28;20491;-68
2022/11/07 03:31:57;;;;;;;10.65;6.68;;;;;;;;;;4995979;28;20032;-67
2022/11/07 03:34:23;;;;;;;11.88;7.32;;;;;;;;;;4996080;28;20034;-66
2022/11/07 03:36:48;;;;;;;14.85;7.45;;;;;;;;;;4996041;28;20411;-67
2022/11/07 03:39:14;;;;;;;11.35;7.75;;;;;;;;;;4995674;28;20022;-67
2022/11/07 03:41:39;;;;;;;9.05;5.38;;;;;;;;;;4995958;28;20030;-66
2022/11/07 03:44:05;;;;;;;12.07;7.00;;;;;;;;;;4995940;28;20023;-67
2022/11/07 03:46:30;;;;;;;14.38;8.13;;;;;;;;;;4995752;28;20030;-67
2022/11/07 03:48:56;;;;;;;13.73;7.70;;;;;;;;;;4995669;28;20073;-67
2022/11/07 03:51:21;;;;;;;12.07;7.70;;;;;;;;;;4995656;28;20057;-67
2022/11/07 03:53:47;;;;;;;11.48;7.45;;;;;;;;;;4995312;28;20034;-67
2022/11/07 03:56:12;;;;;;;12.70;7.53;;;;;;;;;;4995701;28;20054;-68
2022/11/07 03:58:38;;;;;;;14.85;7.85;;;;;;;;;;4995578;28;20033;-68
2022/11/07 04:01:04;;;;;;;14.98;8.13;;;;;;;;;;4995543;28;20387;-67
2022/11/07 04:03:30;;;;;;;13.20;7.95;;;;;;;;;;4995671;28;20026;-67
2022/11/07 04:05:57;;;;;;;13.00;7.80;;;;;;;;;;4995582;28;20030;-68
2022/11/07 04:08:22;;;;;;;11.90;7.45;;;;;;;;;;4994737;28;20554;-68
2022/11/07 04:10:48;;;;;;;12.48;7.15;;;;;;;;;;4995478;28;20065;-67
2022/11/07 04:18:42;;;;;;;12.57;8.00;;;;;;;;;;4995195;28;20494;-67
2022/11/07 04:21:07;;;;;;;12.63;7.22;;;;;;;;;;4995025;28;20035;-67
2022/11/07 04:23:33;;;;;;;12.52;7.10;;;;;;;;;;4994967;28;20476;-68
2022/11/07 04:28:43;;;;;;;13.15;8.05;;;;;;;;;;4994676;28;20104;-68
2022/11/07 04:31:08;;;;;;;12.63;8.07;;;;;;;;;;4994603;28;20114;-68
2022/11/07 04:33:34;;;;;;;10.20;6.97;;;;;;;;;;4994872;28;20471;-68
2022/11/07 04:35:59;;;;;;;12.65;7.55;;;;;;;;;;4994783;28;20030;-68
2022/11/07 04:38:25;;;;;;;13.52;7.60;;;;;;;;;;4994604;28;20033;-67
2022/11/07 04:40:55;;;;;;;14.50;7.68;;;;;;;;;;4994794;28;20051;-67
2022/11/07 04:43:21;;;;;;;;;;;;;;;;;;4995194;28;20506;-67
2022/11/07 04:45:47;;;;;;;11.75;7.13;;;;;;;;;;4994397;28;20378;-67
2022/11/07 04:48:12;;;;;;;11.35;7.43;;;;;;;;;;4994668;28;20038;-68
2022/11/07 04:50:38;;;;;;;11.70;8.57;;;;;;;;;;4994483;28;20031;-68
2022/11/07 04:53:04;;;;;;;14.18;8.15;;;;;;;;;;4994237;28;20038;-67
2022/11/07 04:55:29;;;;;;;12.52;7.07;;;;;;;;;;4994379;28;20044;-67
2022/11/07 04:57:55;;;;;;;15.65;8.23;;;;;;;;;;4994512;28;20034;-69
2022/11/07 05:00:21;;;;;;;13.50;8.27;;;;;;;;;;4994476;28;20026;-67
2022/11/07 05:02:47;;;;;;;15.90;8.27;;;;;;;;;;4994341;28;20061;-67
2022/11/07 05:05:12;;;;;;;14.65;8.45;;;;;;;;;;4994290;28;20065;-68
2022/11/07 05:07:38;;;;;;;14.35;8.13;;;;;;;;;;4994151;28;20053;-67
2022/11/07 05:10:06;;;;;;;15.55;8.73;;;;;;;;;;4994194;28;20472;-68
2022/11/07 05:12:32;;;;;;;11.30;6.32;;;;;;;;;;4994270;28;20026;-67
2022/11/07 05:14:58;;;;;;;19.48;9.10;;;;;;;;;;4994151;28;20611;-67
2022/11/07 05:17:23;;;;;;;13.95;7.25;;;;;;;;;;4994036;28;20026;-68
2022/11/07 05:19:49;;;;;;;17.27;8.48;;;;;;;;;;4993792;28;20105;-67
2022/11/07 05:24:58;;;;;;;13.57;7.88;;;;;;;;;;4993926;28;20505;-67
2022/11/07 05:27:24;;;;;;;11.00;6.97;;;;;;;;;;4993870;28;20026;-67
2022/11/07 05:29:50;;;;;;;17.27;8.13;;;;;;;;;;4993263;28;20550;-68
2022/11/07 05:32:16;;;;;;;12.25;8.02;;;;;;;;;;4993959;28;20030;-66
2022/11/07 05:34:41;;;;;;;12.27;7.72;;;;;;;;;;4992217;28;20058;-67
2022/11/07 05:37:11;;;;;;;13.70;7.75;;;;;;;;;;4993866;28;20045;-67
2022/11/07 05:39:37;;;;;;;15.45;7.68;;;;;;;;;;4993794;28;20113;-67
2022/11/07 05:42:04;;;;;;;16.67;10.88;;;;;;;;;;4993727;28;20250;-67
2022/11/07 05:44:29;;;;;;;13.45;8.38;;;;;;;;;;4993645;28;20030;-67
2022/11/07 05:46:56;;;;;;;10.82;6.88;;;;;;;;;;4993625;28;20077;-67
2022/11/07 05:49:22;;;;;;;13.18;7.97;;;;;;;;;;4993371;28;20439;-68
2022/11/07 05:51:47;;;;;;;11.82;8.30;;;;;;;;;;4993436;28;20022;-67
2022/11/07 05:54:13;;;;;;;13.38;7.78;;;;;;;;;;4993496;28;20080;-68
2022/11/07 05:56:39;;;;;;;10.70;7.82;;;;;;;;;;4993530;28;20035;-67
2022/11/07 05:59:05;;;;;;;12.07;7.60;;;;;;;;;;4993497;28;20022;-68
2022/11/07 06:01:31;;;;;;;12.10;7.78;;;;;;;;;;4993403;28;20023;-69
2022/11/07 06:03:56;;;;;;;16.23;8.57;;;;;;;;;;4993202;28;20439;-68
2022/11/07 06:06:22;;;;;;;15.00;8.07;;;;;;;;;;4993370;28;20105;-69
2022/11/07 06:08:47;;;;;;;11.88;7.72;;;;;;;;;;4993293;28;20085;-64
2022/11/07 06:11:13;;;;;;;10.48;7.00;;;;;;;;;;4993235;28;20391;-65
2022/11/07 06:13:38;;;;;;;13.30;8.15;;;;;;;;;;4993245;28;20038;-67
2022/11/07 06:16:04;;;;;;;16.70;8.48;;;;;;;;;;4993221;28;20030;-65
2022/11/07 06:18:30;;;;;;;15.73;8.18;;;;;;;;;;4992678;28;20099;-66
2022/11/07 06:20:56;;;;;;;16.38;8.90;;;;;;;;;;4993021;28;20034;-66
2022/11/07 06:23:21;;;;;;;12.57;7.75;;;;;;;;;;4993174;28;20421;-66
2022/11/07 06:25:47;;;;;;;11.75;7.88;;;;;;;;;;4993248;28;20062;-65
2022/11/07 06:28:13;;;;;;;13.68;8.13;;;;;;;;;;4993022;28;20484;-64
2022/11/07 06:30:39;;;;;;;14.48;9.15;;;;;;;;;;4992645;28;20038;-64
2022/11/07 06:33:11;;;;;;;11.60;7.70;;;;;;;;;;4995605;28;20121;-64
2022/11/07 06:35:36;;;;;;;13.50;8.65;;;;;;;;;;4996978;28;20503;-66
2022/11/07 06:38:05;;;;;;;12.25;7.38;;;;;;;;;;4996873;28;20022;-66
2022/11/07 06:40:31;;;;;;;20.45;9.23;;;;;;;;;;4996647;28;20516;-66
2022/11/07 06:43:07;;;;;;;13.77;9.45;;;;;;;;;;4996714;28;20038;-67
2022/11/07 06:45:33;;;;;;;15.73;9.40;;;;;;;;;;4996599;28;20027;-66
2022/11/07 06:47:59;;;;;;;16.85;9.93;;;;;;;;;;4996465;28;20033;-65
2022/11/07 06:50:24;;;;;;;17.13;10.30;;;;;;;;;;4996509;28;20018;-67
2022/11/07 06:52:49;;;;;;;14.88;8.43;;;;;;;;;;4996416;28;20030;-66
2022/11/07 06:55:15;;;;;;;17.67;8.98;;;;;;;;;;4996443;28;20030;-68
2022/11/07 06:57:40;;;;;;;15.05;9.63;;;;;;;;;;4996527;28;20105;-66
2022/11/07 07:00:07;;;;;;;17.95;9.40;;;;;;;;;;4996257;28;20093;-67
2022/11/07 07:02:33;;;;;;;18.63;7.68;;;;;;;;;;4996057;28;20018;-67
2022/11/07 07:04:58;;;;;;;12.90;7.68;;;;;;;;;;4996377;28;20097;-67
2022/11/07 07:07:24;;;;;;;13.93;7.55;;;;;;;;;;4996296;28;20034;-66
2022/11/07 07:09:49;;;;;;;13.43;7.65;;;;;;;;;;4996210;28;20468;-66
2022/11/07 07:12:14;;;;;;;14.75;7.20;;;;;;;;;;4996356;28;20029;-68
2022/11/07 07:14:40;;;;;;;10.18;6.57;;;;;;;;;;4996189;28;20030;-67
2022/11/07 07:17:05;;;;;;;13.48;7.75;;;;;;;;;;4995794;28;20069;-66
2022/11/07 07:19:31;;;;;;;14.38;8.35;;;;;;;;;;4996201;28;20487;-66
2022/11/07 07:21:56;;;;;;;12.98;7.32;;;;;;;;;;4995902;28;20092;-67
2022/11/07 07:24:22;;;;;;;11.82;7.35;;;;;;;;;;4996043;28;20041;-67
2022/11/07 07:26:47;;;;;;;10.82;6.22;;;;;;;;;;4996016;28;20027;-67
2022/11/07 07:29:13;;;;;;;10.23;6.32;;;;;;;;;;4995399;28;20120;-66
2022/11/07 07:31:39;;;;;;;12.27;7.10;;;;;;;;;;4995841;28;20034;-67
2022/11/07 07:34:04;;;;;;;13.73;7.28;;;;;;;;;;4995788;28;20030;-67
2022/11/07 07:36:31;;;;;;;9.02;6.43;;;;;;;;;;4995906;28;20028;-67
2022/11/07 07:38:57;;;;;;;10.38;6.80;;;;;;;;;;4995983;28;20053;-67
2022/11/07 07:41:22;;;;;;;11.20;6.60;;;;;;;;;;4995849;28;20071;-66
2022/11/07 07:43:48;;;;;;;17.90;11.68;;;;;;;;;;4995000;28;20527;-67
2022/11/07 07:46:16;;;;;;;12.35;6.28;;;;;;;;;;4995792;28;20091;-66
2022/11/07 07:48:42;;;;;;;16.42;6.70;;;;;;;;;;4995568;28;20022;-66
2022/11/07 07:51:07;;;;;;;9.27;6.18;;;;;;;;;;4995779;28;20472;-67
2022/11/07 07:53:33;;;;;;;12.93;6.38;;;;;;;;;;4995697;28;20470;-66
2022/11/07 07:55:59;;;;;;;10.60;5.82;;;;;;;;;;4995442;28;20117;-67
2022/11/07 07:58:25;;;;;;;8.63;5.43;;;;;;;;;;4995401;28;20030;-68
2022/11/07 08:00:52;;;;;;;9.55;6.43;;;;;;;;;;4995339;28;20031;-67
2022/11/07 08:03:17;;;;;;;8.32;5.80;;;;;;;;;;4995414;28;20045;-67
2022/11/07 08:05:43;;;;;;;18.83;7.38;;;;;;;;;;4995476;28;20496;-66
2022/11/07 08:08:08;;;;;;;14.13;6.78;;;;;;;;;;4995310;28;20034;-67
2022/11/07 08:10:34;;;;;;;10.73;6.28;;;;;;;;;;4995222;28;20033;-67
2022/11/07 08:13:00;;;;;;;12.93;6.55;;;;;;;;;;4990998;28;20506;-66
2022/11/07 08:15:25;;;;;;;11.05;6.03;;;;;;;;;;4993705;28;20026;-68
2022/11/07 08:17:51;;;;;;;16.33;6.85;;;;;;;;;;4994601;28;20104;-66
2022/11/07 08:20:23;;;;;;;17.90;5.65;;;;;;;;;;4994758;28;20041;-68
2022/11/07 08:22:49;;;;;;;13.00;5.97;;;;;;;;;;4994088;28;20022;-66
2022/11/07 08:25:14;;;;;;;8.80;4.88;;;;;;;;;;4993496;28;20026;-67
2022/11/07 08:27:40;;;;;;;13.38;5.95;;;;;;;;;;4994518;28;20018;-67
2022/11/07 08:30:06;;;;;;;6.72;4.30;;;;;;;;;;4993716;28;20193;-67
2022/11/07 08:32:32;;;;;;;10.57;5.60;;;;;;;;;;4994446;28;20023;-68
2022/11/07 08:34:58;;;;;;;8.40;4.82;;;;;;;;;;4994597;28;20081;-67
2022/11/07 08:37:23;;;;;;;12.55;5.82;;;;;;;;;;4994396;28;20058;-67
2022/11/07 08:39:49;;;;;;;10.25;5.18;;;;;;;;;;4994083;28;20026;-66
2022/11/07 08:42:14;;;;;;;10.60;5.57;;;;;;;;;;4994297;28;20118;-68
2022/11/07 08:44:40;;;;;;;9.13;5.30;;;;;;;;;;4994076;28;20026;-66
2022/11/07 08:47:06;;;;;;;7.57;5.20;;;;;;;;;;4994039;28;20059;-67
2022/11/07 08:49:32;;;;;;;12.38;5.55;;;;;;;;;;4994220;28;20033;-67
2022/11/07 08:51:58;;;;;;;8.23;4.80;;;;;;;;;;4994069;28;20030;-67
2022/11/07 08:54:29;;;;;;;8.93;5.03;;;;;;;;;;4993937;28;20619;-65
2022/11/07 08:56:55;;;;;;;8.63;5.30;;;;;;;;;;4993347;28;20139;-66
2022/11/07 08:59:21;;;;;;;9.80;5.63;;;;;;;;;;4993778;28;20025;-66
2022/11/07 09:01:48;;;;;;;6.78;4.47;;;;;;;;;;4993878;28;20428;-67
2022/11/07 09:04:13;;;;;;;7.93;4.53;;;;;;;;;;4993990;28;20030;-67
2022/11/07 09:06:38;;;;;;;6.85;4.40;;;;;;;;;;4993756;28;20482;-67
2022/11/07 09:09:04;;;;;;;12.05;4.47;;;;;;;;;;4993672;28;20452;-67
2022/11/07 09:11:30;;;;;;;7.82;4.70;;;;;;;;;;4993863;28;20076;-68
2022/11/07 09:13:56;;;;;;;9.13;5.03;;;;;;;;;;4993361;28;20073;-68
2022/11/07 09:16:22;;;;;;;5.78;3.90;;;;;;;;;;4990646;28;20029;-67
2022/11/07 09:18:49;;;;;;;7.32;4.13;;;;;;;;;;4980928;28;20026;-66
2022/11/07 09:21:15;;;;;;;12.15;4.30;;;;;;;;;;4974175;28;20046;-67
2022/11/07 09:23:40;;;;;;;7.38;3.88;;;;;;;;;;4978742;28;20038;-67
2022/11/07 09:26:06;;;;;;;8.23;4.10;;;;;;;;;;4983389;28;20026;-66
2022/11/07 09:28:32;;;;;;;7.97;3.35;;;;;;;;;;4981719;28;20042;-67
2022/11/07 09:31:00;;;;;;;4.75;3.35;;;;;;;;;;4981896;28;20034;-67
2022/11/07 09:33:26;;;;;;;10.77;3.78;;;;;;;;;;4974116;28;20468;-68
2022/11/07 09:35:52;;;;;;;6.63;4.10;;;;;;;;;;4973900;28;20158;-67
2022/11/07 09:38:18;;;;;;;6.13;3.55;;;;;;;;;;4974072;28;20070;-67
2022/11/07 09:40:46;;;;;;;12.57;3.55;;;;;;;;;;4973956;28;20118;-67
2022/11/07 09:43:49;;;;;;;6.95;3.88;;;;;;;;;;4973575;28;20476;-68
2022/11/07 09:46:42;;;;;;;7.50;3.88;;;;;;;;;;4973856;28;20102;-68
2022/11/07 09:49:18;;;;;;;14.05;4.20;;;;;;;;;;4973871;28;20109;-68
2022/11/07 09:51:55;;;;;;;8.98;3.70;;;;;;;;;;4973848;28;20089;-68
2022/11/07 09:54:25;;;;;;;8.45;3.45;;;;;;;;;;4973924;28;20074;-67
2022/11/07 09:56:51;;;;;;;5.35;3.13;;;;;;;;;;4973843;28;20085;-68
2022/11/07 09:59:24;;;;;;;7.05;3.47;;;;;;;;;;4973758;28;20065;-67
2022/11/07 10:01:50;;;;;;;9.20;3.90;;;;;;;;;;4973824;28;20407;-67
2022/11/07 10:04:18;;;;;;;9.15;3.55;;;;;;;;;;4973836;28;20023;-68
2022/11/07 10:06:53;;;;;;;7.43;2.78;;;;;;;;;;4973292;28;20065;-68
2022/11/07 10:09:23;;;;;;;7.43;2.67;;;;;;;;;;4972305;28;20055;-68
2022/11/07 10:12:09;;;;;;;7.10;3.03;;;;;;;;;;4973313;28;20425;-67
2022/11/07 10:14:46;;;;;;;4.65;3.03;;;;;;;;;;4973633;28;20062;-67
2022/11/07 10:17:39;;;;;;;7.90;3.33;;;;;;;;;;4973469;28;20023;-68
2022/11/07 10:20:29;;;;;;;6.28;2.97;;;;;;;;;;4973532;28;20031;-68
2022/11/07 10:23:16;;;;;;;5.13;2.53;;;;;;;;;;4973632;28;20492;-67
2022/11/07 10:25:53;;;;;;;5.20;2.90;;;;;;;;;;4972037;28;20038;-67
2022/11/07 10:28:19;;;;;;;6.35;3.17;;;;;;;;;;4973273;28;20432;-67
2022/11/07 10:30:51;;;;;;;9.90;2.80;;;;;;;;;;4989144;28;20037;-67
2022/11/07 10:33:31;;;;;;;4.65;2.50;;;;;;;;;;4991869;28;20062;-68
2022/11/07 10:36:20;;;;;;;5.80;2.88;;;;;;;;;;4992730;28;20387;-67
2022/11/07 10:38:45;;;;;;;16.02;3.60;;;;;;;;;;4992191;28;20057;-67
2022/11/07 10:41:15;;;;;;;6.53;2.58;;;;;;;;;;4992335;28;20468;-67
2022/11/07 10:43:43;;;;;;;4.50;2.38;;;;;;;;;;4992743;28;20026;-67
2022/11/07 10:46:37;;;;;;;5.00;2.63;;;;;;;;;;4992612;28;20090;-67
2022/11/07 10:49:14;;;;;;;6.70;2.53;;;;;;;;;;4992538;28;20026;-67
2022/11/07 10:51:41;;;;;;;6.00;3.55;;;;;;;;;;4992631;28;20027;-67
2022/11/07 10:54:39;;;;;;;3.55;2.33;;;;;;;;;;4992258;28;20054;-67
2022/11/07 10:57:14;;;;;;;4.30;2.10;;;;;;;;;;4992396;28;20041;-67
2022/11/07 10:59:55;;;;;;;4.93;2.00;;;;;;;;;;4992586;28;20038;-68
2022/11/07 11:02:28;;;;;;;5.47;2.50;;;;;;;;;;4992622;28;20033;-67
2022/11/07 11:05:01;;;;;;;11.02;5.88;;;;;;;;;;4992748;28;20050;-67
2022/11/07 11:07:39;;;;;;;4.40;2.30;;;;;;;;;;4992650;28;20034;-67
2022/11/07 11:10:23;;;;;;;6.88;2.40;;;;;;;;;;4992353;28;20528;-67
2022/11/07 11:12:49;;;;;;;4.68;2.20;;;;;;;;;;4992456;28;20105;-68
2022/11/07 11:15:18;;;;;;;7.05;2.40;;;;;;;;;;4992615;28;20031;-67
2022/11/07 11:17:45;;;;;;;5.60;2.10;;;;;;;;;;4992544;28;20114;-67
2022/11/07 11:20:29;;;;;;;4.72;2.13;;;;;;;;;;4995176;28;20476;-66
2022/11/07 11:22:55;;;;;;;5.18;2.05;;;;;;;;;;4995748;28;20038;-68
2022/11/07 11:25:22;;;;;;;6.18;2.65;;;;;;;;;;4995791;28;20026;-67
2022/11/07 11:28:10;;;;;;;3.30;2.00;;;;;;;;;;4995447;28;20034;-65
2022/11/07 11:30:36;;;;;;;6.00;3.05;;;;;;;;;;4995045;28;20046;-67
2022/11/07 11:33:10;;;;;;;5.15;2.00;;;;;;;;;;4995610;28;20030;-66
2022/11/07 11:35:57;;;;;;;6.00;2.10;;;;;;;;;;4995856;28;20023;-67
2022/11/07 11:38:35;;;;;;;6.68;2.00;;;;;;;;;;4995411;28;20018;-67
2022/11/07 11:41:11;;;;;;;4.22;1.83;;;;;;;;;;4995381;28;20022;-67
2022/11/07 11:43:54;;;;;;;5.72;2.50;;;;;;;;;;4995650;28;20030;-68
2022/11/07 11:46:32;;;;;;;5.50;1.67;;;;;;;;;;4995496;28;20027;-68
2022/11/07 11:49:08;;;;;;;4.72;2.00;;;;;;;;;;4995309;28;20030;-67
2022/11/07 11:51:36;;;;;;;6.82;2.28;;;;;;;;;;4995223;28;20026;-67
2022/11/07 11:54:02;;;;;;;3.33;2.08;;;;;;;;;;4994941;28;20045;-68
2022/11/07 11:56:42;;;;;;;4.85;1.83;;;;;;;;;;4995334;28;20026;-67
2022/11/07 11:59:20;;;;;;;5.85;2.17;;;;;;;;;;4995169;28;20030;-66
2022/11/07 12:02:08;;;;;;;7.22;2.10;;;;;;;;;;4995094;28;20041;-67
2022/11/07 12:05:15;;;;;;;5.03;2.13;;;;;;;;;;4994950;28;20034;-65
2022/11/07 12:07:56;;;;;;;9.70;2.50;;;;;;;;;;4994461;28;20034;-67
2022/11/07 12:10:42;;;;;;;4.20;1.88;;;;;;;;;;4995007;28;20045;-67
2022/11/07 12:13:41;;;;;;;6.13;1.80;;;;;;;;;;4994651;28;20031;-67
2022/11/07 12:16:22;;;;;;;4.55;1.85;;;;;;;;;;4994879;28;20551;-67
2022/11/07 12:18:47;;;;;;;;;;;;;;;;;;4995317;28;20120;-68
2022/11/07 12:21:24;;;;;;;7.03;2.33;;;;;;;;;;4994542;28;19957;-68
2022/11/07 12:24:08;;;;;;;6.13;1.90;;;;;;;;;;4994551;28;20030;-68
2022/11/07 12:26:49;;;;;;;6.47;2.08;;;;;;;;;;4994540;28;20034;-67
2022/11/07 12:29:30;;;;;;;4.20;1.95;;;;;;;;;;4993710;28;20042;-68
2022/11/07 12:31:58;;;;;;;5.65;2.00;;;;;;;;;;4994514;28;20031;-68
2022/11/07 12:34:45;;;;;;;5.60;2.00;;;;;;;;;;4994495;28;20034;-68
2022/11/07 12:37:47;;;;;;;14.60;2.28;;;;;;;;;;4994118;28;20142;-68
2022/11/07 12:40:50;;;;;;;7.15;1.90;;;;;;;;;;4994364;28;20026;-68
2022/11/07 12:43:43;;;;;;;4.68;1.90;;;;;;;;;;4994152;28;20038;-68
2022/11/07 12:46:46;;;;;;;4.78;2.20;;;;;;;;;;4994287;28;20105;-68
2022/11/07 12:49:37;;;;;;;6.00;1.65;;;;;;;;;;4994035;28;20088;-68
2022/11/07 12:52:25;;;;;;;4.47;1.90;;;;;;;;;;4994123;28;20034;-68
2022/11/07 12:55:01;;;;;;;5.03;1.65;;;;;;;;;;4994164;28;20480;-68
2022/11/07 12:57:31;;;;;;;6.07;1.88;;;;;;;;;;4994233;28;20395;-67
2022/11/07 13:00:14;;;;;;;5.95;1.70;;;;;;;;;;4993803;28;20030;-67
2022/11/07 13:02:54;;;;;;;3.33;1.90;;;;;;;;;;4993968;28;20175;-68
2022/11/07 13:05:34;;;;;;;3.35;1.60;;;;;;;;;;4993788;28;20034;-68
2022/11/07 13:08:16;;;;;;;7.07;1.75;;;;;;;;;;4993873;28;20033;-68
2022/11/07 13:11:26;;;;;;;7.18;1.80;;;;;;;;;;4993705;28;20030;-68
2022/11/07 13:14:22;;;;;;;4.15;1.60;;;;;;;;;;4993918;28;20037;-67
2022/11/07 13:17:18;;;;;;;4.07;1.70;;;;;;;;;;4994071;28;20062;-67
2022/11/07 13:20:05;;;;;;;4.38;1.70;;;;;;;;;;4991481;28;20038;-67
2022/11/07 13:22:37;;;;;;;5.43;1.92;;;;;;;;;;4993148;28;20034;-67
2022/11/07 13:25:05;;;;;;;7.63;3.63;;;;;;;;;;4993504;28;20018;-66
2022/11/07 13:27:34;;;;;;;3.80;1.38;;;;;;;;;;4993559;28;20027;-67
2022/11/07 13:30:18;;;;;;;7.13;1.70;;;;;;;;;;4992882;28;20096;-67
2022/11/07 13:32:46;;;;;;;6.10;2.15;;;;;;;;;;4993568;28;20033;-68
2022/11/07 13:35:27;;;;;;;4.45;1.90;;;;;;;;;;4993125;28;20027;-68
2022/11/07 13:37:57;;;;;;;7.40;2.28;;;;;;;;;;4993304;28;20029;-68
2022/11/07 13:40:31;;;;;;;5.10;1.73;;;;;;;;;;4993232;28;20031;-65
2022/11/07 13:43:03;;;;;;;5.88;1.85;;;;;;;;;;4992692;28;20030;-67
2022/11/07 13:45:40;;;;;;;7.10;2.20;;;;;;;;;;4993329;28;20027;-68
2022/11/07 13:48:17;;;;;;;5.50;2.05;;;;;;;;;;4993042;28;20034;-68
2022/11/07 13:50:50;;;;;;;5.18;1.92;;;;;;;;;;4993198;28;20054;-68
2022/11/07 13:53:22;;;;;;;7.75;2.45;;;;;;;;;;4993088;28;20550;-67
2022/11/07 13:56:00;;;;;;;28.92;4.50;;;;;;;;;;4993123;28;20030;-67
2022/11/07 13:58:30;;;;;;;4.95;2.00;;;;;;;;;;4993165;28;20029;-67
2022/11/07 14:01:02;;;;;;;7.60;2.38;;;;;;;;;;4993097;28;20109;-67
2022/11/07 14:03:28;;;;;;;6.78;2.20;;;;;;;;;;4992806;28;20081;-67
2022/11/07 14:05:55;;;;;;;6.28;2.33;;;;;;;;;;4992927;28;20499;-67
2022/11/07 14:08:26;;;;;;;7.93;2.90;;;;;;;;;;4992985;28;20031;-68
2022/11/07 14:10:53;;;;;;;8.90;3.42;;;;;;;;;;4992978;28;20026;-68
2022/11/07 14:13:25;;;;;;;6.93;3.28;;;;;;;;;;4992845;28;20022;-67
2022/11/07 14:16:20;;;;;;;9.23;3.85;;;;;;;;;;4992846;28;20109;-68
2022/11/07 14:18:53;;;;;;;9.57;3.08;;;;;;;;;;4990643;28;20038;-67
2022/11/07 14:21:30;;;;;;;5.18;2.28;;;;;;;;;;4992702;28;20088;-67
2022/11/07 14:23:56;;;;;;;7.18;2.03;;;;;;;;;;4992847;28;20031;-68
2022/11/07 14:26:41;;;;;;;9.85;2.22;;;;;;;;;;4992954;28;20041;-67
2022/11/07 14:29:06;;;;;;;9.23;2.25;;;;;;;;;;4992249;28;20121;-67
2022/11/07 14:31:34;;;;;;;9.68;2.17;;;;;;;;;;4992639;28;20126;-67
2022/11/07 14:34:12;;;;;;;7.95;2.70;;;;;;;;;;4992590;28;20031;-68
2022/11/07 14:37:05;;;;;;;9.18;3.42;;;;;;;;;;4992749;28;20035;-67
2022/11/07 14:39:31;;;;;;;8.48;3.40;;;;;;;;;;4992747;28;20384;-68
2022/11/07 14:42:01;;;;;;;7.20;2.72;;;;;;;;;;4992594;28;20368;-68
2022/11/07 14:44:33;;;;;;;9.82;2.78;;;;;;;;;;4992678;28;20499;-68
2022/11/07 14:46:59;;;;;;;5.75;2.22;;;;;;;;;;4992391;28;20085;-68
2022/11/07 14:49:36;;;;;;;8.43;2.63;;;;;;;;;;4992649;28;20026;-68
2022/11/07 14:52:03;;;;;;;8.70;2.55;;;;;;;;;;4992496;28;20030;-68
2022/11/07 14:54:36;;;;;;;4.80;1.90;;;;;;;;;;4995804;28;20435;-67
2022/11/07 14:57:03;;;;;;;3.83;1.83;;;;;;;;;;4996187;28;20030;-67
2022/11/07 14:59:34;;;;;;;5.45;2.10;;;;;;;;;;4996268;28;20049;-67
2022/11/07 15:02:11;;;;;;;5.78;2.40;;;;;;;;;;4996074;28;20491;-67
2022/11/07 15:04:43;;;;;;;8.45;2.00;;;;;;;;;;4995989;28;20376;-67
2022/11/07 15:07:17;;;;;;;10.52;3.72;;;;;;;;;;4995961;28;20065;-68